Time;durP1;ratioP1;P1;durP2;ratioP2;P2;SDS_P1;SDS_P2;PMS_P1;PMS_P2;Temp;Humidity;BMP_temperature;BMP_pressure;BME280_temperature;BME280_humidity;BME280_pressure;Samples;Min_cycle;Max_cycle;Signal;HPM_P1;HPM_P2
2022/04/24 00:00:42;;;;;;;14.70;9.75;;;;;;;-141.50;100.00;63355.56;5103636;28;20047;-75
2022/04/24 00:03:08;;;;;;;15.00;9.63;;;;;;;-141.50;100.00;63355.56;5099707;28;20047;-78
2022/04/24 00:05:35;;;;;;;18.75;9.52;;;;;;;-141.50;100.00;63355.56;5100725;28;20431;-78
2022/04/24 00:08:02;;;;;;;14.90;9.13;;;;;;;-141.50;100.00;63355.56;5101182;28;20059;-78
2022/04/24 00:10:30;;;;;;;18.30;10.10;;;;;;;-141.50;100.00;63355.56;5100641;28;20358;-74
2022/04/24 00:12:57;;;;;;;14.90;9.20;;;;;;;-141.50;100.00;63355.56;5097473;28;20071;-76
2022/04/24 00:15:23;;;;;;;12.98;9.05;;;;;;;-141.50;100.00;63355.56;5098449;28;20086;-78
2022/04/24 00:17:50;;;;;;;15.02;9.63;;;;;;;-141.50;100.00;63355.56;5101607;28;20059;-78
2022/04/24 00:20:17;;;;;;;16.02;10.20;;;;;;;-141.50;100.00;63355.56;5102424;28;20043;-77
2022/04/24 00:22:44;;;;;;;17.90;10.38;;;;;;;-141.50;100.00;63355.56;5105376;28;20245;-78
2022/04/24 00:25:10;;;;;;;16.75;10.20;;;;;;;-141.50;100.00;63355.56;5104540;28;20079;-78
2022/04/24 00:27:37;;;;;;;18.73;9.75;;;;;;;-141.50;100.00;63355.56;5103893;28;20578;-77
2022/04/24 00:30:04;;;;;;;16.20;9.73;;;;;;;-141.50;100.00;63355.56;5103531;28;20052;-76
2022/04/24 00:32:31;;;;;;;14.98;9.77;;;;;;;-141.50;100.00;63355.56;5095734;28;20073;-77
2022/04/24 00:34:57;;;;;;;15.65;10.43;;;;;;;-141.50;100.00;63355.56;5079841;28;20464;-76
2022/04/24 00:37:25;;;;;;;14.93;9.98;;;;;;;-141.50;100.00;63355.56;5088400;28;20079;-76
2022/04/24 00:39:51;;;;;;;14.80;10.23;;;;;;;-141.50;100.00;63355.56;5083045;28;20044;-76
2022/04/24 00:42:18;;;;;;;16.48;10.40;;;;;;;-141.50;100.00;63355.56;5094787;28;20473;-76
2022/04/24 00:44:45;;;;;;;20.52;10.70;;;;;;;-141.50;100.00;63355.56;5095695;28;20491;-77
2022/04/24 00:47:21;;;;;;;17.25;11.57;;;;;;;-141.50;100.00;63355.56;5094705;28;20055;-76
2022/04/24 00:49:49;;;;;;;17.20;10.93;;;;;;;-141.50;100.00;63355.56;5093112;28;20146;-76
2022/04/24 00:52:17;;;;;;;18.08;11.10;;;;;;;-141.50;100.00;63355.56;5093838;28;20044;-75
2022/04/24 00:54:44;;;;;;;17.75;11.10;;;;;;;-141.50;100.00;63355.56;5097432;28;20073;-76
2022/04/24 00:57:12;;;;;;;17.05;10.15;;;;;;;-141.50;100.00;63355.56;5095753;28;20051;-79
2022/04/24 00:59:40;;;;;;;15.13;10.57;;;;;;;-141.50;100.00;63355.56;5077039;28;20123;-77
2022/04/24 01:02:08;;;;;;;19.95;10.88;;;;;;;-141.50;100.00;63355.56;5075867;28;20076;-77
2022/04/24 01:04:36;;;;;;;16.80;11.18;;;;;;;-141.50;100.00;63355.56;5075185;28;20522;-78
2022/04/24 01:07:04;;;;;;;15.13;10.27;;;;;;;-141.50;100.00;63355.56;5074079;28;20114;-78
2022/04/24 01:09:32;;;;;;;16.88;10.95;;;;;;;-141.50;100.00;63355.56;5071984;28;20520;-75
2022/04/24 01:11:59;;;;;;;19.10;10.90;;;;;;;-141.50;100.00;63355.56;5071815;28;20048;-76
2022/04/24 01:14:28;;;;;;;15.98;10.15;;;;;;;-141.50;100.00;63355.56;5084001;28;20723;-75
2022/04/24 01:16:55;;;;;;;17.30;10.20;;;;;;;-141.50;100.00;63355.56;5077989;28;20170;-76
2022/04/24 01:19:22;;;;;;;16.70;10.48;;;;;;;-141.50;100.00;63355.56;5074657;28;20087;-76
2022/04/24 01:21:49;;;;;;;18.20;10.98;;;;;;;-141.50;100.00;63355.56;5071736;28;20048;-76
2022/04/24 01:24:20;;;;;;;16.08;10.27;;;;;;;-141.50;100.00;63355.56;5073563;28;20087;-78
2022/04/24 01:26:47;;;;;;;16.08;10.38;;;;;;;-141.50;100.00;63355.56;5073477;28;20052;-79
2022/04/24 01:29:14;;;;;;;15.18;9.48;;;;;;;-141.50;100.00;63355.56;5071043;28;20156;-77
2022/04/24 01:31:41;;;;;;;15.73;9.48;;;;;;;-141.50;100.00;63355.56;5070658;28;20060;-75
2022/04/24 01:34:08;;;;;;;15.32;9.15;;;;;;;-141.50;100.00;63355.56;5071944;28;20071;-78
2022/04/24 01:36:34;;;;;;;17.30;9.40;;;;;;;-141.50;100.00;63355.56;5074654;28;20534;-76
2022/04/24 01:39:01;;;;;;;14.45;9.13;;;;;;;-141.50;100.00;63355.56;5073000;28;20114;-78
2022/04/24 01:41:28;;;;;;;16.40;8.50;;;;;;;-141.50;100.00;63355.56;5072137;28;20076;-77
2022/04/24 01:43:54;;;;;;;14.02;8.88;;;;;;;-141.50;100.00;63355.56;5074188;28;20055;-78
2022/04/24 01:46:21;;;;;;;13.85;9.10;;;;;;;-141.50;100.00;63355.56;5072639;28;20630;-78
2022/04/24 01:48:47;;;;;;;13.63;8.93;;;;;;;-141.50;100.00;63355.56;5076704;28;20098;-76
2022/04/24 01:51:14;;;;;;;15.02;9.32;;;;;;;-141.50;100.00;63355.56;5079873;28;20052;-77
2022/04/24 01:53:42;;;;;;;15.38;8.93;;;;;;;-141.50;100.00;63355.56;5079913;28;20143;-78
2022/04/24 01:56:09;;;;;;;15.85;9.23;;;;;;;-141.50;100.00;63355.56;5079330;28;20481;-77
2022/04/24 01:58:37;;;;;;;12.93;8.38;;;;;;;-141.50;100.00;63355.56;5078197;28;20045;-78
2022/04/24 02:01:04;;;;;;;12.50;8.30;;;;;;;-141.50;100.00;63355.56;5081662;28;20084;-77
2022/04/24 02:03:32;;;;;;;14.63;8.02;;;;;;;-141.50;100.00;63355.56;5082593;28;20072;-78
2022/04/24 02:05:59;;;;;;;12.98;8.13;;;;;;;-141.50;100.00;63355.56;5085553;28;20041;-78
2022/04/24 02:08:27;;;;;;;12.75;8.23;;;;;;;-141.50;100.00;63355.56;5091856;28;20063;-76
2022/04/24 02:10:53;;;;;;;20.50;9.25;;;;;;;-141.50;100.00;63355.56;5083584;28;20055;-75
2022/04/24 02:13:20;;;;;;;14.25;8.10;;;;;;;-141.50;100.00;63355.56;5074307;28;20053;-78
2022/04/24 02:15:50;;;;;;;13.95;9.00;;;;;;;-141.50;100.00;63355.56;5074549;28;20048;-75
2022/04/24 02:18:19;;;;;;;17.50;8.45;;;;;;;-141.50;100.00;63355.56;5074730;28;20048;-77
2022/04/24 02:20:46;;;;;;;14.18;8.98;;;;;;;-141.50;100.00;63355.56;5080644;28;20048;-77
2022/04/24 02:23:15;;;;;;;15.10;8.75;;;;;;;-141.50;100.00;63355.56;5078320;28;20044;-78
2022/04/24 02:25:42;;;;;;;14.27;8.48;;;;;;;-141.50;100.00;63355.56;5076804;28;20040;-76
2022/04/24 02:28:08;;;;;;;12.70;8.68;;;;;;;-141.50;100.00;63355.56;5076879;28;20064;-76
2022/04/24 02:30:35;;;;;;;12.57;8.90;;;;;;;-141.50;100.00;63355.56;5077327;28;20056;-78
2022/04/24 02:33:02;;;;;;;12.10;8.07;;;;;;;-141.50;100.00;63355.56;5075169;28;20044;-76
2022/04/24 02:35:30;;;;;;;13.05;8.23;;;;;;;-141.50;100.00;63355.56;5076373;28;20072;-76
2022/04/24 02:37:56;;;;;;;12.43;9.00;;;;;;;-141.50;100.00;63355.56;5073947;28;20554;-76
2022/04/24 02:40:23;;;;;;;13.18;8.30;;;;;;;-141.50;100.00;63355.56;5075538;28;20102;-74
2022/04/24 02:42:51;;;;;;;15.65;8.90;;;;;;;-141.50;100.00;63355.56;5077284;28;20044;-76
2022/04/24 02:45:19;;;;;;;13.05;8.68;;;;;;;-141.50;100.00;63355.56;5077972;28;20700;-77
2022/04/24 02:47:46;;;;;;;11.85;8.07;;;;;;;-141.50;100.00;63355.56;5079136;28;20052;-76
2022/04/24 02:50:14;;;;;;;14.50;8.95;;;;;;;-141.50;100.00;63355.56;5079087;28;20055;-77
2022/04/24 02:52:59;;;;;;;14.55;8.35;;;;;;;-141.50;100.00;63355.56;5078017;28;20048;-78
2022/04/24 02:55:28;;;;;;;14.45;9.27;;;;;;;-141.50;100.00;63355.56;5074818;28;20048;-76
2022/04/24 02:57:55;;;;;;;14.55;9.10;;;;;;;-141.50;100.00;63355.56;5079792;28;20048;-77
2022/04/24 03:00:24;;;;;;;14.80;9.00;;;;;;;-141.50;100.00;63355.56;5094449;28;20094;-75
2022/04/24 03:02:55;;;;;;;15.57;9.70;;;;;;;-141.50;100.00;63355.56;5098430;28;20082;-75
2022/04/24 03:05:22;;;;;;;13.93;8.88;;;;;;;-141.50;100.00;63355.56;5098625;28;20052;-76
2022/04/24 03:07:59;;;;;;;16.90;8.88;;;;;;;-141.50;100.00;63355.56;5102579;28;20048;-75
2022/04/24 03:10:28;;;;;;;13.82;8.82;;;;;;;-141.50;100.00;63355.56;5101254;28;20126;-77
2022/04/24 03:12:55;;;;;;;15.40;9.75;;;;;;;-141.50;100.00;63355.56;5102791;28;20068;-77
2022/04/24 03:15:22;;;;;;;15.32;9.65;;;;;;;-141.50;100.00;63355.56;5106662;28;20040;-76
2022/04/24 03:17:49;;;;;;;15.30;9.57;;;;;;;-141.50;100.00;63355.56;5108971;28;20036;-77
2022/04/24 03:20:16;;;;;;;14.13;9.23;;;;;;;-141.50;100.00;63355.56;5105784;28;20056;-78
2022/04/24 03:22:42;;;;;;;12.63;9.02;;;;;;;-141.50;100.00;63355.56;5099557;28;20124;-77
2022/04/24 03:25:10;;;;;;;13.30;9.02;;;;;;;-141.50;100.00;63355.56;5101253;28;20051;-79
2022/04/24 03:27:37;;;;;;;14.88;9.40;;;;;;;-141.50;100.00;63355.56;5100138;28;20484;-78
2022/04/24 03:30:06;;;;;;;14.30;9.30;;;;;;;-141.50;100.00;63355.56;5102102;28;20047;-76
2022/04/24 03:32:35;;;;;;;14.40;9.65;;;;;;;-141.50;100.00;63355.56;5106277;28;20052;-76
2022/04/24 03:35:04;;;;;;;14.70;9.85;;;;;;;-141.50;100.00;63355.56;5106516;28;20119;-76
2022/04/24 03:37:30;;;;;;;14.30;9.88;;;;;;;-141.50;100.00;63355.56;5095227;28;20048;-75
2022/04/24 03:39:57;;;;;;;16.27;10.00;;;;;;;-141.50;100.00;63355.56;5084185;28;20048;-78
2022/04/24 03:42:25;;;;;;;18.42;9.27;;;;;;;-141.50;100.00;63355.56;5080762;28;20186;-77
2022/04/24 03:44:59;;;;;;;13.82;9.15;;;;;;;-141.50;100.00;63355.56;5078817;28;20112;-78
2022/04/24 03:47:25;;;;;;;17.65;9.77;;;;;;;-141.50;100.00;63355.56;5072865;28;20055;-77
2022/04/24 03:49:52;;;;;;;15.70;10.27;;;;;;;-141.50;100.00;63355.56;5074536;28;20075;-74
2022/04/24 03:52:19;;;;;;;16.77;9.95;;;;;;;-141.50;100.00;63355.56;5073058;28;20136;-77
2022/04/24 03:54:46;;;;;;;16.13;10.45;;;;;;;-141.50;100.00;63355.56;5073988;28;20469;-78
2022/04/24 03:57:13;;;;;;;14.95;10.27;;;;;;;-141.50;100.00;63355.56;5075518;28;20048;-76
2022/04/24 03:59:40;;;;;;;17.63;10.23;;;;;;;-141.50;100.00;63355.56;5093986;28;20070;-78
2022/04/24 04:02:07;;;;;;;18.15;10.05;;;;;;;-141.50;100.00;63355.56;5094292;28;20056;-76
2022/04/24 04:04:34;;;;;;;14.10;9.57;;;;;;;-141.50;100.00;63355.56;5092288;28;20056;-76
2022/04/24 04:07:01;;;;;;;15.45;9.88;;;;;;;-141.50;100.00;63355.56;5091032;28;20076;-76
2022/04/24 04:09:28;;;;;;;19.65;9.68;;;;;;;-141.50;100.00;63355.56;5092289;28;20048;-77
2022/04/24 04:11:54;;;;;;;15.02;9.70;;;;;;;-141.50;100.00;63355.56;5093382;28;20128;-77
2022/04/24 04:14:24;;;;;;;15.50;10.30;;;;;;;-141.50;100.00;63355.56;5094945;28;20055;-77
2022/04/24 04:16:51;;;;;;;15.23;10.07;;;;;;;-141.50;100.00;63355.56;5091139;28;20044;-77
2022/04/24 04:19:18;;;;;;;16.10;9.95;;;;;;;-141.50;100.00;63355.56;5092085;28;20060;-77
2022/04/24 04:21:44;;;;;;;16.30;10.73;;;;;;;-141.50;100.00;63355.56;5093901;28;20122;-77
2022/04/24 04:24:12;;;;;;;16.33;10.25;;;;;;;-141.50;100.00;63355.56;5095307;28;20056;-77
2022/04/24 04:26:38;;;;;;;16.80;10.77;;;;;;;-141.50;100.00;63355.56;5096111;28;20464;-78
2022/04/24 04:29:08;;;;;;;15.93;10.13;;;;;;;-141.50;100.00;63355.56;5093728;28;20075;-78
2022/04/24 04:31:34;;;;;;;15.95;10.15;;;;;;;-141.50;100.00;63355.56;5095124;28;20047;-76
2022/04/24 04:34:01;;;;;;;16.20;10.25;;;;;;;-141.50;100.00;63355.56;5097291;28;20044;-77
2022/04/24 04:36:28;;;;;;;18.05;9.98;;;;;;;-141.50;100.00;63355.56;5092621;28;20113;-76
2022/04/24 04:38:55;;;;;;;16.40;10.55;;;;;;;-141.50;100.00;63355.56;5093464;28;20052;-77
2022/04/24 04:41:22;;;;;;;16.08;10.30;;;;;;;-141.50;100.00;63355.56;5095956;28;20078;-77
2022/04/24 04:43:48;;;;;;;14.50;10.00;;;;;;;-141.50;100.00;63355.56;5096348;28;20444;-77
2022/04/24 04:46:15;;;;;;;18.48;10.50;;;;;;;-141.50;100.00;63355.56;5096969;28;20105;-76
2022/04/24 04:48:41;;;;;;;14.02;9.65;;;;;;;-141.50;100.00;63355.56;5093121;28;20100;-77
2022/04/24 04:51:10;;;;;;;18.80;10.45;;;;;;;-141.50;100.00;63355.56;5093315;28;20082;-75
2022/04/24 04:53:37;;;;;;;16.17;10.77;;;;;;;-141.50;100.00;63355.56;5092895;28;20043;-77
2022/04/24 04:56:04;;;;;;;15.52;10.35;;;;;;;-141.50;100.00;63355.56;5093948;28;20130;-78
2022/04/24 04:58:30;;;;;;;19.63;10.80;;;;;;;-141.50;100.00;63355.56;5081446;28;20215;-78
2022/04/24 05:00:59;;;;;;;16.52;10.93;;;;;;;-141.50;100.00;63355.56;5072508;28;20078;-77
2022/04/24 05:03:26;;;;;;;17.67;10.32;;;;;;;-141.50;100.00;63355.56;5071225;28;20139;-75
2022/04/24 05:05:53;;;;;;;15.40;10.27;;;;;;;-141.50;100.00;63355.56;5070288;28;20040;-76
2022/04/24 05:08:20;;;;;;;14.95;10.20;;;;;;;-141.50;100.00;63355.56;5072639;28;20076;-75
2022/04/24 05:10:46;;;;;;;15.77;10.43;;;;;;;-141.50;100.00;63355.56;5072880;28;20431;-76
2022/04/24 05:13:13;;;;;;;18.05;10.43;;;;;;;-141.50;100.00;63355.56;5075560;28;20064;-78
2022/04/24 05:15:39;;;;;;;15.18;10.43;;;;;;;-141.50;100.00;63355.56;5071823;28;20086;-76
2022/04/24 05:18:06;;;;;;;18.88;10.30;;;;;;;-141.50;100.00;63355.56;5071095;28;20061;-75
2022/04/24 05:20:32;;;;;;;16.50;10.23;;;;;;;-141.50;100.00;63355.56;5070333;28;20511;-77
2022/04/24 05:23:03;;;;;;;17.77;10.75;;;;;;;-141.50;100.00;63355.56;5071944;28;20516;-76
2022/04/24 05:25:30;;;;;;;15.95;10.20;;;;;;;-141.50;100.00;63355.56;5076306;28;20044;-76
2022/04/24 05:28:00;;;;;;;17.52;10.00;;;;;;;-141.50;100.00;63355.56;5077676;28;20099;-76
2022/04/24 05:30:28;;;;;;;19.38;10.57;;;;;;;-141.50;100.00;63355.56;5084448;28;20131;-75
2022/04/24 05:32:58;;;;;;;15.48;9.55;;;;;;;-141.50;100.00;63355.56;5097320;28;20056;-78
2022/04/24 05:35:25;;;;;;;19.70;10.93;;;;;;;-141.50;100.00;63355.56;5096642;28;20044;-75
2022/04/24 05:37:51;;;;;;;15.85;10.35;;;;;;;-141.50;100.00;63355.56;5098149;28;20072;-77
2022/04/24 05:40:18;;;;;;;15.98;10.52;;;;;;;-141.50;100.00;63355.56;5097905;28;20504;-78
2022/04/24 05:42:51;;;;;;;15.80;10.80;;;;;;;-141.50;100.00;63355.56;5098898;28;20052;-76
2022/04/24 05:45:22;;;;;;;15.82;10.15;;;;;;;-141.50;100.00;63355.56;5099080;28;20068;-76
2022/04/24 05:47:49;;;;;;;14.52;9.50;;;;;;;-141.50;100.00;63355.56;5100714;28;20052;-78
2022/04/24 05:50:16;;;;;;;16.98;9.73;;;;;;;-141.50;100.00;63355.56;5099383;28;20048;-78
2022/04/24 05:52:43;;;;;;;15.80;10.57;;;;;;;-141.50;100.00;63355.56;5098580;28;20459;-76
2022/04/24 05:55:10;;;;;;;17.10;10.40;;;;;;;-141.50;100.00;63355.56;5098985;28;20063;-77
2022/04/24 05:57:37;;;;;;;16.08;10.32;;;;;;;-141.50;100.00;63355.56;5093766;28;20121;-78
2022/04/24 06:00:09;;;;;;;16.85;11.13;;;;;;;-141.50;100.00;63355.56;5080051;28;20056;-76
2022/04/24 06:02:35;;;;;;;15.75;10.00;;;;;;;-141.50;100.00;63355.56;5067579;28;20563;-75
2022/04/24 06:05:02;;;;;;;15.80;9.90;;;;;;;-141.50;100.00;63355.56;5070539;28;20061;-75
2022/04/24 06:07:33;;;;;;;13.30;9.57;;;;;;;-141.50;100.00;63355.56;5070584;28;20067;-77
2022/04/24 06:10:00;;;;;;;14.35;9.80;;;;;;;-141.50;100.00;63355.56;5070648;28;20048;-75
2022/04/24 06:12:27;;;;;;;13.93;10.18;;;;;;;-141.50;100.00;63355.56;5071186;28;20048;-76
2022/04/24 06:14:54;;;;;;;14.10;9.23;;;;;;;-141.50;100.00;63355.56;5071284;28;20598;-78
2022/04/24 06:17:20;;;;;;;13.85;9.30;;;;;;;-141.50;100.00;63355.56;5069669;28;20128;-79
2022/04/24 06:19:47;;;;;;;16.65;10.40;;;;;;;-141.50;100.00;63355.56;5071631;28;20478;-77
2022/04/24 06:22:13;;;;;;;19.27;10.05;;;;;;;-141.50;100.00;63355.56;5070980;28;20059;-76
2022/04/24 06:24:40;;;;;;;17.08;9.32;;;;;;;-141.50;100.00;63355.56;5073304;28;20060;-78
2022/04/24 06:27:07;;;;;;;14.25;9.77;;;;;;;-141.50;100.00;63355.56;5071438;28;20121;-76
2022/04/24 06:29:33;;;;;;;13.05;8.85;;;;;;;-141.50;100.00;63355.56;5074136;28;20064;-77
2022/04/24 06:32:04;;;;;;;13.48;9.05;;;;;;;-141.50;100.00;63355.56;5071063;28;20048;-77
2022/04/24 06:34:31;;;;;;;15.25;9.55;;;;;;;-141.50;100.00;63355.56;5072283;28;20048;-76
2022/04/24 06:36:58;;;;;;;15.73;9.00;;;;;;;-141.50;100.00;63355.56;5068693;28;20053;-77
2022/04/24 06:39:24;;;;;;;14.30;9.38;;;;;;;-141.50;100.00;63355.56;5072412;28;20075;-77
2022/04/24 06:41:51;;;;;;;14.32;8.57;;;;;;;-141.50;100.00;63355.56;5075166;28;20084;-77
2022/04/24 06:44:17;;;;;;;14.52;9.00;;;;;;;-141.50;100.00;63355.56;5076860;28;20107;-78
2022/04/24 06:46:46;;;;;;;14.80;8.70;;;;;;;-141.50;100.00;63355.56;5075997;28;20052;-77
2022/04/24 06:49:13;;;;;;;11.02;8.63;;;;;;;-141.50;100.00;63355.56;5079812;28;20079;-77
2022/04/24 06:51:39;;;;;;;15.70;9.60;;;;;;;-141.50;100.00;63355.56;5079598;28;20045;-78
2022/04/24 06:54:06;;;;;;;14.23;9.10;;;;;;;-141.50;100.00;63355.56;5087875;28;20071;-76
2022/04/24 06:56:33;;;;;;;13.73;9.65;;;;;;;-141.50;100.00;63355.56;5089088;28;20040;-77
2022/04/24 06:59:05;;;;;;;12.73;9.10;;;;;;;-141.50;100.00;63355.56;5097830;28;20048;-77
2022/04/24 07:01:31;;;;;;;14.13;9.18;;;;;;;-141.50;100.00;63355.56;5091589;28;20044;-77
2022/04/24 07:03:58;;;;;;;14.70;9.27;;;;;;;-141.50;100.00;63355.56;5086567;28;20130;-76
2022/04/24 07:06:25;;;;;;;14.40;8.93;;;;;;;-141.50;100.00;63355.56;5083220;28;20087;-76
2022/04/24 07:08:51;;;;;;;13.77;9.20;;;;;;;-141.50;100.00;63355.56;5094192;28;20040;-76
2022/04/24 07:11:18;;;;;;;13.30;9.38;;;;;;;-141.50;100.00;63355.56;5106766;28;20063;-77
2022/04/24 07:13:44;;;;;;;14.10;9.43;;;;;;;-141.50;100.00;63355.56;5097987;28;20479;-73
2022/04/24 07:16:11;;;;;;;13.63;9.25;;;;;;;-141.50;100.00;63355.56;5083089;28;20075;-75
2022/04/24 07:18:37;;;;;;;12.10;9.10;;;;;;;-141.50;100.00;63355.56;5098130;28;20044;-76
2022/04/24 07:21:06;;;;;;;12.50;8.35;;;;;;;-141.50;100.00;63355.56;5089211;28;20052;-78
2022/04/24 07:23:33;;;;;;;14.05;8.45;;;;;;;-141.50;100.00;63355.56;5078967;28;20133;-75
2022/04/24 07:25:59;;;;;;;15.45;9.30;;;;;;;-141.50;100.00;63355.56;5089706;28;20079;-77
2022/04/24 07:28:26;;;;;;;15.02;9.35;;;;;;;-141.50;100.00;63355.56;5099964;28;20056;-77
2022/04/24 07:30:53;;;;;;;13.32;9.00;;;;;;;-141.50;100.00;63355.56;5098379;28;20067;-76
2022/04/24 07:33:19;;;;;;;14.65;9.45;;;;;;;-141.50;100.00;63355.56;5099838;28;20087;-76
2022/04/24 07:35:46;;;;;;;15.75;10.00;;;;;;;-141.50;100.00;63355.56;5102304;28;20063;-76
2022/04/24 07:38:12;;;;;;;15.60;9.95;;;;;;;-141.50;100.00;63355.56;5094166;28;20121;-78
2022/04/24 07:40:40;;;;;;;14.10;10.18;;;;;;;-141.50;100.00;63355.56;5078392;28;20326;-76
2022/04/24 07:43:08;;;;;;;13.32;9.85;;;;;;;-141.50;100.00;63355.56;5083616;28;20090;-77
2022/04/24 07:45:40;;;;;;;14.93;9.52;;;;;;;-141.50;100.00;63355.56;5080556;28;20058;-77
2022/04/24 07:48:09;;;;;;;13.55;9.77;;;;;;;-141.50;100.00;63355.56;5085815;28;20060;-76
2022/04/24 07:50:38;;;;;;;14.35;9.63;;;;;;;-141.50;100.00;63355.56;5083221;28;20159;-76
2022/04/24 07:53:05;;;;;;;21.42;10.10;;;;;;;-141.50;100.00;63355.56;5076160;28;20060;-77
2022/04/24 07:55:32;;;;;;;15.25;10.27;;;;;;;-141.50;100.00;63355.56;5092826;28;20083;-76
2022/04/24 07:57:59;;;;;;;16.67;10.63;;;;;;;-141.50;100.00;63355.56;5086565;28;20052;-77
2022/04/24 08:00:30;;;;;;;22.08;10.85;;;;;;;-141.50;100.00;63355.56;5082967;28;20071;-77
2022/04/24 08:03:06;;;;;;;18.85;10.38;;;;;;;-141.50;100.00;63355.56;5089192;28;20093;-75
2022/04/24 08:05:39;;;;;;;15.75;10.20;;;;;;;-141.50;100.00;63355.56;5076801;28;20048;-75
2022/04/24 08:08:10;;;;;;;14.82;10.30;;;;;;;-141.50;100.00;63355.56;5070771;28;20052;-75
2022/04/24 08:10:43;;;;;;;14.43;9.88;;;;;;;-141.50;100.00;63355.56;5068129;28;20048;-77
2022/04/24 08:13:09;;;;;;;15.90;10.55;;;;;;;-141.50;100.00;63355.56;5084456;28;20348;-76
2022/04/24 08:15:41;;;;;;;15.77;10.40;;;;;;;-141.50;100.00;63355.56;5090253;28;20071;-74
2022/04/24 08:18:09;;;;;;;17.35;10.55;;;;;;;-141.50;100.00;63355.56;5083006;28;20052;-76
2022/04/24 08:20:36;;;;;;;16.38;9.65;;;;;;;-141.50;100.00;63355.56;5083672;28;20051;-77
2022/04/24 08:23:04;;;;;;;19.27;10.32;;;;;;;-141.50;100.00;63355.56;5074006;28;20477;-76
2022/04/24 08:25:35;;;;;;;16.95;10.63;;;;;;;-141.50;100.00;63355.56;5074557;28;20069;-76
2022/04/24 08:28:10;;;;;;;16.63;10.48;;;;;;;-141.50;100.00;63355.56;5080492;28;20119;-77
2022/04/24 08:30:39;;;;;;;17.52;10.55;;;;;;;-141.50;100.00;63355.56;5076279;28;20059;-76
2022/04/24 08:33:07;;;;;;;16.48;10.75;;;;;;;-141.50;100.00;63355.56;5072443;28;20293;-76
2022/04/24 08:35:33;;;;;;;19.40;10.80;;;;;;;-141.50;100.00;63355.56;5065551;28;20084;-75
2022/04/24 08:38:00;;;;;;;15.18;10.77;;;;;;;-141.50;100.00;63355.56;5070283;28;20102;-77
2022/04/24 08:40:27;;;;;;;17.77;11.18;;;;;;;-141.50;100.00;63355.56;5081335;28;20052;-76
2022/04/24 08:42:57;;;;;;;19.38;10.48;;;;;;;-141.50;100.00;63355.56;5076766;28;20716;-76
2022/04/24 08:45:29;;;;;;;23.80;10.93;;;;;;;-141.50;100.00;63355.56;5085974;28;20083;-76
2022/04/24 08:47:56;;;;;;;17.85;10.60;;;;;;;-141.50;100.00;63355.56;5071337;28;20139;-77
2022/04/24 08:50:27;;;;;;;17.60;10.82;;;;;;;-141.50;100.00;63355.56;5066103;28;20091;-76
2022/04/24 08:52:58;;;;;;;17.00;11.15;;;;;;;-141.50;100.00;63355.56;5081132;28;20083;-74
2022/04/24 08:55:29;;;;;;;16.02;11.43;;;;;;;-141.50;100.00;63355.56;5090002;28;20677;-75
2022/04/24 08:57:56;;;;;;;19.58;11.50;;;;;;;-141.50;100.00;63355.56;5078182;28;20705;-75
2022/04/24 09:00:24;;;;;;;17.75;12.15;;;;;;;-141.50;100.00;63355.56;5066046;28;20469;-75
2022/04/24 09:02:51;;;;;;;20.60;12.68;;;;;;;-141.50;100.00;63355.56;5067434;28;20710;-78
2022/04/24 09:05:18;;;;;;;20.65;13.00;;;;;;;-141.50;100.00;63355.56;5073515;28;20067;-75
2022/04/24 09:07:46;;;;;;;19.30;13.48;;;;;;;-141.50;100.00;63355.56;5087280;28;20044;-77
2022/04/24 09:10:47;;;;;;;21.92;13.93;;;;;;;-141.50;100.00;63355.56;5077688;28;20055;-76
2022/04/24 09:13:24;;;;;;;20.13;14.10;;;;;;;-141.50;100.00;63355.56;5069343;28;20044;-76
2022/04/24 09:15:55;;;;;;;22.35;14.80;;;;;;;-141.50;100.00;63355.56;5078084;28;20671;-74
2022/04/24 09:18:21;;;;;;;22.42;14.32;;;;;;;-141.50;100.00;63355.56;5066479;28;20907;-75
2022/04/24 09:20:55;;;;;;;19.60;14.23;;;;;;;-141.50;100.00;63355.56;5063634;28;20041;-73
2022/04/24 09:23:21;;;;;;;20.75;13.48;;;;;;;-141.50;100.00;63355.56;5071455;28;20087;-75
2022/04/24 09:25:48;;;;;;;20.38;14.60;;;;;;;-141.50;100.00;63355.56;5084161;28;20075;-76
2022/04/24 09:28:14;;;;;;;21.25;13.77;;;;;;;-141.50;100.00;63355.56;5082112;28;20052;-75
2022/04/24 09:30:49;;;;;;;24.42;14.57;;;;;;;-141.50;100.00;63355.56;5067850;28;20580;-73
2022/04/24 09:33:15;;;;;;;19.90;13.90;;;;;;;-141.50;100.00;63355.56;5064168;28;20060;-76
2022/04/24 09:35:43;;;;;;;24.23;14.43;;;;;;;-141.50;100.00;63355.56;5064463;28;20054;-75
2022/04/24 09:38:14;;;;;;;23.85;15.13;;;;;;;-141.50;100.00;63355.56;5083647;28;20300;-75
2022/04/24 09:40:46;;;;;;;21.13;14.10;;;;;;;-141.50;100.00;63355.56;5085067;28;20567;-77
2022/04/24 09:43:14;;;;;;;23.88;15.05;;;;;;;-141.50;100.00;63355.56;5064364;28;20644;-75
2022/04/24 09:45:45;;;;;;;21.48;14.25;;;;;;;-141.50;100.00;63355.56;5064491;28;20048;-77
2022/04/24 09:48:16;;;;;;;21.45;14.43;;;;;;;-141.50;100.00;63355.56;5063654;28;20055;-75
2022/04/24 09:50:43;;;;;;;19.13;13.60;;;;;;;-141.50;100.00;63355.56;5084547;28;20423;-76
2022/04/24 09:53:15;;;;;;;21.17;13.95;;;;;;;-141.50;100.00;63355.56;5084856;28;20521;-76
2022/04/24 09:55:44;;;;;;;20.73;14.25;;;;;;;-141.50;100.00;63355.56;5065859;28;20384;-77
2022/04/24 09:58:12;;;;;;;19.65;13.48;;;;;;;-141.50;100.00;63355.56;5073406;28;20048;-75
2022/04/24 10:00:44;;;;;;;23.05;14.00;;;;;;;-141.50;100.00;63355.56;5072670;28;20053;-74
2022/04/24 10:03:16;;;;;;;19.38;13.65;;;;;;;-141.50;100.00;63355.56;5062697;28;20114;-74
2022/04/24 10:05:47;;;;;;;19.55;13.65;;;;;;;-141.50;100.00;63355.56;5063334;28;20057;-76
2022/04/24 10:08:16;;;;;;;17.20;13.40;;;;;;;-141.50;100.00;63355.56;5082186;28;20044;-74
2022/04/24 10:10:48;;;;;;;20.60;13.70;;;;;;;-141.50;100.00;63355.56;5082587;28;20151;-74
2022/04/24 10:13:18;;;;;;;21.60;13.55;;;;;;;-141.50;100.00;63355.56;5083338;28;20096;-76
2022/04/24 10:16:22;;;;;;;18.13;13.27;;;;;;;-141.50;100.00;63355.56;5076890;28;20080;-75
2022/04/24 10:19:02;;;;;;;19.60;12.98;;;;;;;-141.50;100.00;63355.56;5059155;28;20147;-77
2022/04/24 10:21:47;;;;;;;21.52;13.50;;;;;;;-141.50;100.00;63355.56;5085722;28;20079;-78
2022/04/24 10:24:14;;;;;;;22.85;14.32;;;;;;;-141.50;100.00;63355.56;5087919;28;20076;-83
2022/04/24 10:26:51;;;;;;;21.25;13.60;;;;;;;-141.50;100.00;63355.56;5073824;28;20120;-79
2022/04/24 10:29:18;;;;;;;19.30;13.20;;;;;;;-141.50;100.00;63355.56;5080865;28;20083;-79
2022/04/24 10:31:47;;;;;;;19.55;14.13;;;;;;;-141.50;100.00;63355.56;5069257;28;20062;-80
2022/04/24 10:34:18;;;;;;;20.45;14.18;;;;;;;-141.50;100.00;63355.56;5070445;28;20059;-74
2022/04/24 10:36:55;;;;;;;21.20;13.43;;;;;;;-141.50;100.00;63355.56;5073421;28;20063;-76
2022/04/24 10:39:24;;;;;;;21.60;14.32;;;;;;;-141.50;100.00;63355.56;5081349;28;20138;-78
2022/04/24 10:42:15;;;;;;;18.23;13.52;;;;;;;-141.50;100.00;63355.56;5093103;28;20052;-76
2022/04/24 10:44:52;;;;;;;22.80;13.85;;;;;;;-141.50;100.00;63355.56;5074066;28;20055;-77
2022/04/24 10:47:19;;;;;;;22.52;13.98;;;;;;;-141.50;100.00;63355.56;5069419;28;20522;-77
2022/04/24 10:49:46;;;;;;;19.65;14.40;;;;;;;-141.50;100.00;63355.56;5072167;28;20339;-78
2022/04/24 10:52:13;;;;;;;20.95;14.27;;;;;;;-141.50;100.00;63355.56;5094378;28;20059;-76
2022/04/24 10:54:41;;;;;;;22.48;14.90;;;;;;;-141.50;100.00;63355.56;5093588;28;20587;-77
2022/04/24 10:57:22;;;;;;;23.05;15.55;;;;;;;-141.50;100.00;63355.56;5091272;28;20060;-77
2022/04/24 10:59:52;;;;;;;23.27;15.95;;;;;;;-141.50;100.00;63355.56;5089490;28;20694;-76
2022/04/24 11:02:27;;;;;;;23.08;15.32;;;;;;;-141.50;100.00;63355.56;5082363;28;20090;-77